Flight Track Log - Related Links

Times and Time Zones

All times are in EDT time to prevent confusion due to time zone crossing. See the SWA484 flight status page for this flight to view local times or setup timezone preferences in your user account.

Time Position Orientation Groundspeed Altitude Reporting Facility
EDT Latitude Longitude Course Direction KTS MPH feet Rate Location/Type
Thu 09:44:12 AM 28.4167 -81.3000 156° South 158 182 700  Level Orlando TRACON
Thu 09:45:19 AM 28.3500 -81.2667 156° South 209 241 2,800 2,646 Climbing Orlando TRACON
Thu 09:46:19 AM 28.3333 -81.2167 111° Southeast 219 252 6,300 3,026 Climbing Orlando TRACON
Thu 09:47:14 AM 28.3833 -81.1833 30° Northeast 263 303 8,600 2,580 Climbing Orlando TRACON
Thu 09:49:39 AM 28.6006 -81.2492 345° North 324 373 14,900 2,751 Climbing Jacksonville Center
Thu 09:50:39 AM 28.7011 -81.2736 348° North 355 409 18,000 2,750 Climbing Jacksonville Center
Thu 09:51:39 AM 28.8058 -81.3050 345° North 376 433 20,400 2,450 Climbing Jacksonville Center
Thu 09:52:39 AM 28.9147 -81.3342 347° North 390 449 22,900 2,350 Climbing Jacksonville Center
Thu 09:53:39 AM 29.0236 -81.3728 343° North 400 460 25,100 1,550 Climbing Jacksonville Center
Thu 09:54:39 AM 29.1389 -81.4019 348° North 410 472 26,000 1,100 Climbing Jacksonville Center
Thu 09:55:39 AM 29.2578 -81.4072 358° North 416 479 27,300 1,500 Climbing Jacksonville Center
Thu 09:56:39 AM 29.3769 -81.4197 355° North 428 493 29,000 1,800 Climbing Jacksonville Center
Thu 09:57:39 AM 29.5003 -81.4347 354° North 436 502 30,900 1,900 Climbing Jacksonville Center
Thu 09:58:39 AM 29.6214 -81.4425 357° North 436 502 32,800 1,800 Climbing Jacksonville Center
Thu 09:59:39 AM 29.7406 -81.4525 356° North 436 502 34,500 1,600 Climbing Jacksonville Center
Thu 10:00:39 AM 29.8514 -81.4653 354° North 441 507 36,000 1,800 Climbing Jacksonville Center
Thu 10:01:39 AM 29.9642 -81.4756 355° North 436 502 38,100 1,500 Climbing Jacksonville Center
Thu 10:02:39 AM 30.0772 -81.4858 356° North 415 478 39,000 450 Climbing Jacksonville Center
Thu 10:03:39 AM 30.1878 -81.4964 355° North 402 463 39,000  Level Jacksonville Center
Thu 10:04:39 AM 30.2986 -81.5067 355° North 402 463 39,000  Level Jacksonville Center
Thu 10:05:39 AM 30.4133 -81.5053 North 402 463 39,000  Level Jacksonville Center
Thu 10:06:39 AM 30.5261 -81.4964 North 402 463 39,000  Level Jacksonville Center
Thu 10:07:39 AM 30.6367 -81.4875 North 402 463 39,000  Level Jacksonville Center
Thu 10:08:39 AM 30.7514 -81.4786 North 402 463 39,000  Level Jacksonville Center
Thu 10:09:39 AM 30.8619 -81.4694 North 402 463 39,000  Level Jacksonville Center
Thu 10:10:39 AM 30.9747 -81.4631 North 402 463 39,000  Level Jacksonville Center
Thu 10:11:39 AM 31.0894 -81.4517 North 402 463 39,000  Level Jacksonville Center
Thu 10:12:39 AM 31.2042 -81.4425 North 402 463 39,000  Level Jacksonville Center
Thu 10:13:39 AM 31.3186 -81.4236 North 402 463 39,000  Level Jacksonville Center
Thu 10:14:39 AM 31.4436 -81.3853 15° North 415 478 39,000  Level Jacksonville Center
Thu 10:15:39 AM 31.5475 -81.3592 12° North 420 483 39,000  Level Jacksonville Center
Thu 10:16:39 AM 31.6744 -81.3253 13° North 420 483 39,000  Level Jacksonville Center
Thu 10:17:39 AM 31.7869 -81.2967 12° North 420 483 39,000  Level Jacksonville Center
Thu 10:18:39 AM 31.8886 -81.2433 24° Northeast 420 483 39,000  Level Jacksonville Center
Thu 10:19:40 AM 31.9939 -81.1606 34° Northeast 438 504 39,000  Level Jacksonville Center
Thu 10:20:39 AM 32.0969 -81.0706 36° Northeast 450 518 39,000  Level Jacksonville Center
Thu 10:21:39 AM 32.2167 -80.9747 34° Northeast 468 539 39,000  Level Jacksonville Center
Thu 10:22:39 AM 32.3197 -80.8867 36° Northeast 460 529 39,000  Level Jacksonville Center
Thu 10:23:39 AM 32.4125 -80.8108 35° Northeast 460 529 39,000  Level Jacksonville Center
Thu 10:24:39 AM 32.5175 -80.7172 37° Northeast 460 529 39,000  Level Jacksonville Center
Thu 10:25:39 AM 32.6222 -80.6283 36° Northeast 465 535 39,000  Level Jacksonville Center
Thu 10:26:39 AM 32.7269 -80.5367 36° Northeast 465 535 39,000  Level Jacksonville Center
Thu 10:27:39 AM 32.8319 -80.4500 35° Northeast 465 535 39,000  Level Jacksonville Center
Thu 10:28:39 AM 32.9367 -80.3606 36° Northeast 465 535 39,000  Level Jacksonville Center
Thu 10:29:39 AM 33.0431 -80.2658 37° Northeast 470 541 39,000  Level Jacksonville Center
Thu 10:30:39 AM 33.1519 -80.1733 35° Northeast 464 534 39,000  Level Jacksonville Center
Thu 10:31:39 AM 33.2603 -80.0806 36° Northeast 475 547 39,000  Level Jacksonville Center
Thu 10:32:39 AM 33.3647 -79.9878 37° Northeast 475 547 39,000  Level Jacksonville Center
Thu 10:33:39 AM 33.4792 -79.8869 36° Northeast 469 540 39,000  Level Jacksonville Center
Thu 10:34:39 AM 33.5856 -79.7936 36° Northeast 479 551 39,000  Level Jacksonville Center
Thu 10:35:39 AM 33.6897 -79.7000 37° Northeast 473 544 39,000  Level Jacksonville Center
Thu 10:36:39 AM 33.7978 -79.6061 36° Northeast 478 550 39,000  Level Jacksonville Center
Thu 10:37:40 AM 33.9036 -79.5097 37° Northeast 473 544 39,000  Level Jacksonville Center
Thu 10:38:39 AM 34.0017 -79.4283 35° Northeast 473 544 39,000  Level Jacksonville Center
Thu 10:40:26 AM 34.1883 -79.2647 36° Northeast 465 535 39,000  Level Washington Center
Thu 10:41:26 AM 34.3064 -79.1569 37° Northeast 474 545 39,000  Level Washington Center
Thu 10:42:26 AM 34.4136 -79.0608 36° Northeast 474 545 39,000  Level Washington Center
Thu 10:43:26 AM 34.5142 -78.9744 35° Northeast 474 545 39,000  Level Washington Center
Thu 10:44:26 AM 34.6322 -78.8606 38° Northeast 480 552 39,000  Level Washington Center
Thu 10:45:26 AM 34.7411 -78.7639 36° Northeast 485 558 39,000  Level Washington Center
Thu 10:46:26 AM 34.8481 -78.6644 37° Northeast 485 558 39,000  Level Washington Center
Thu 10:47:26 AM 34.9547 -78.5669 37° Northeast 485 558 39,000  Level Washington Center
Thu 10:48:26 AM 35.0636 -78.4697 36° Northeast 485 558 39,000  Level Washington Center
Thu 10:49:27 AM 35.1575 -78.3789 38° Northeast 485 558 39,000  Level Washington Center
Thu 10:50:26 AM 35.2664 -78.2783 37° Northeast 485 558 39,000  Level Washington Center
Thu 10:51:26 AM 35.3750 -78.1803 36° Northeast 490 564 39,000  Level Washington Center
Thu 10:52:26 AM 35.4875 -78.0869 34° Northeast 490 564 39,000  Level Washington Center
Thu 10:53:27 AM 35.6019 -77.9983 32° Northeast 484 557 39,000  Level Washington Center
Thu 10:54:26 AM 35.7164 -77.9097 32° Northeast 484 557 39,000  Level Washington Center
Thu 10:55:26 AM 35.8328 -77.8208 32° Northeast 490 564 39,000  Level Washington Center
Thu 10:56:26 AM 35.9472 -77.7319 32° Northeast 490 564 39,000  Level Washington Center
Thu 10:57:26 AM 36.0594 -77.6294 36° Northeast 490 564 39,000  Level Washington Center
Thu 10:58:26 AM 36.1697 -77.5269 37° Northeast 490 564 39,000  Level Washington Center
Thu 10:59:26 AM 36.2756 -77.4239 38° Northeast 490 564 39,000  Level Washington Center
Thu 11:00:26 AM 36.3856 -77.3233 36° Northeast 490 564 39,000  Level Washington Center
Thu 11:01:26 AM 36.4978 -77.2172 37° Northeast 495 570 39,000  Level Washington Center
Thu 11:02:26 AM 36.6075 -77.1158 37° Northeast 495 570 39,000  Level Washington Center
Thu 11:03:26 AM 36.7172 -77.0092 38° Northeast 495 570 39,000  Level Washington Center
Thu 11:04:27 AM 36.8289 -76.9075 36° Northeast 495 570 39,000  Level Washington Center
Thu 11:05:26 AM 36.9533 -76.7953 36° Northeast 500 575 39,000  Level Washington Center
Thu 11:06:26 AM 37.0669 -76.6903 36° Northeast 500 575 39,000  Level Washington Center
Thu 11:07:27 AM 37.1803 -76.5903 35° Northeast 506 582 39,000  Level Washington Center
Thu 11:08:26 AM 37.2961 -76.4847 36° Northeast 506 582 39,000  Level Washington Center
Thu 11:09:26 AM 37.4094 -76.3814 36° Northeast 506 582 39,000  Level Washington Center
Thu 11:10:26 AM 37.5225 -76.2778 36° Northeast 506 582 39,000  Level Washington Center
Thu 11:11:26 AM 37.6378 -76.1714 36° Northeast 506 582 39,000  Level Washington Center
Thu 11:12:26 AM 37.7531 -76.0725 34° Northeast 506 582 39,000  Level Washington Center
Thu 11:13:26 AM 37.8639 -75.9625 38° Northeast 501 577 39,000  Level Washington Center
Thu 11:14:26 AM 37.9664 -75.8658 37° Northeast 510 587 39,000  Level Washington Center
Thu 11:15:26 AM 38.0792 -75.7581 37° Northeast 505 581 39,000  Level Washington Center
Thu 11:16:26 AM 38.1919 -75.6500 37° Northeast 505 581 39,000  Level Washington Center
Thu 11:17:26 AM 38.3211 -75.5336 35° Northeast 510 587 39,000  Level Washington Center
Thu 11:18:26 AM 38.4483 -75.4725 21° North 483 556 39,000  Level Washington Center
Thu 11:19:26 AM 38.5794 -75.4139 19° North 488 562 39,000  Level Washington Center
Thu 11:20:26 AM 38.7108 -75.3628 17° North 488 562 39,000  Level Washington Center
Thu 11:21:26 AM 38.8400 -75.3039 20° North 488 562 39,000  Level Washington Center
Thu 11:22:27 AM 38.9711 -75.2500 18° North 488 562 39,000  Level Washington Center
Thu 11:23:26 AM 39.1044 -75.1958 17° North 488 562 39,000  Level Washington Center
Thu 11:24:26 AM 39.2397 -75.1467 16° North 494 568 39,000 -100 Level Washington Center
Thu 11:25:26 AM 39.3600 -75.0439 33° Northeast 504 580 38,800 -595 Descending Washington Center
Thu 11:26:27 AM 39.4719 -74.9114 42° Northeast 513 590 37,800 -950 Descending Washington Center
Thu 11:27:26 AM 39.5775 -74.7839 43° Northeast 519 597 36,900 -897 Descending Washington Center
Thu 11:29:41 AM 39.8083 -74.5108 42° Northeast 529 609 34,900 -928 Descending New Center
Thu 11:30:40 AM 39.9339 -74.3633 42° Northeast 536 617 33,900 -1,513 Descending New Center
Thu 11:31:40 AM 40.0422 -74.2253 44° Northeast 536 617 31,900 -2,550 Descending New Center
Thu 11:32:40 AM 40.1544 -74.0922 42° Northeast 536 617 28,800 -2,876 Descending New Center
Thu 11:33:41 AM 40.2622 -73.9586 43° Northeast 536 617 26,100 -1,706 Descending New Center
Thu 11:36:04 AM 40.4994 -73.6600 44° Northeast 507 583 23,000 -1,212 Descending Boston Center
Thu 11:37:04 AM 40.6008 -73.5361 43° Northeast 502 578 22,000 -1,000 Descending Boston Center
Thu 11:38:04 AM 40.7019 -73.4147 42° Northeast 491 565 21,000 -1,500 Descending Boston Center
Thu 11:39:04 AM 40.8008 -73.2956 42° Northeast 485 558 19,000 -1,000 Descending Boston Center
Thu 11:40:04 AM 40.9017 -73.1789 41° Northeast 473 544 19,000 -100 Level Boston Center
Thu 11:41:04 AM 41.0044 -73.0644 40° Northeast 473 544 18,800 -1,250 Descending Boston Center
Thu 11:42:04 AM 41.1008 -72.9469 43° Northeast 473 544 16,500 -2,512 Descending Boston Center
Thu 11:42:30 AM 41.1533 -72.8867 41° Northeast 469 540 15,200 -2,700 Descending Boston Center
Thu 11:43:04 AM 41.1950 -72.8344 43° Northeast 467 537 13,800 -2,700 Descending Boston Center
Thu 11:43:30 AM 41.2453 -72.7742 42° Northeast 450 518 12,500 -2,400 Descending Boston Center
Thu 11:44:04 AM 41.2872 -72.7356 35° Northeast 443 510 11,400 -1,475 Descending Boston Center
Thu 11:44:31 AM 41.3372 -72.6889 35° Northeast 412 474 11,000 -800 Descending Boston Center
Thu 11:45:04 AM 41.3936 -72.6642 18° North 391 450 10,600 -700 Descending Boston Center
Thu 11:45:31 AM 41.4311 -72.6478 18° North 346 398 10,300 -894 Descending Boston Center
Thu 11:46:38 AM 41.5250 -72.6119 16° North 305 351 9,200 -1,453 Descending Boston Center
Thu 11:47:39 AM 41.5981 -72.5844 16° North 278 320 7,200 -1,774 Descending Boston Center
Thu 11:48:33 AM 41.6542 -72.5650 15° North 257 296 5,800 -1,722 Descending Boston Center
Thu 11:49:34 AM 41.7208 -72.5403 15° North 229 264 3,900 -1,623 Descending Boston Center
Thu 11:50:35 AM 41.7814 -72.5153 17° North 228 262 2,500 -694 Descending Boston Center
Thu 11:51:35 AM 41.8272 -72.5431 336° Northwest 200 230 2,500 -198 Level Boston Center
Thu 11:52:36 AM 41.8583 -72.5906 311° West 169 194 2,100 -590 Descending Boston Center
Thu 11:53:37 AM 41.8897 -72.6297 317° Northwest 159 183 1,300 -793 Descending Boston Center
Thu 11:54:37 AM 41.9147 -72.6661 313° West 134 154 500 -800 Descending Boston Center
Thu 11:56:00 AM 41.9333 -72.6833 45° Northeast  Level FlightAware

Login

Don't have an account? Register now (free) for customized features, flight alerts, and more!